sensor_id;sensor_type;location;lat;lon;timestamp;temperature;humidity
4356;DHT22;64374;51.482;7.408;2023-03-14T00:00:07;13.40;99.90
4356;DHT22;64374;51.482;7.408;2023-03-14T00:02:37;13.50;99.90
4356;DHT22;64374;51.482;7.408;2023-03-14T00:05:07;13.40;99.90
4356;DHT22;64374;51.482;7.408;2023-03-14T00:07:39;13.40;99.90
4356;DHT22;64374;51.482;7.408;2023-03-14T00:10:10;13.60;99.90
4356;DHT22;64374;51.482;7.408;2023-03-14T00:12:39;13.70;99.90
4356;DHT22;64374;51.482;7.408;2023-03-14T00:15:08;13.50;99.90
4356;DHT22;64374;51.482;7.408;2023-03-14T00:17:37;13.60;99.90
4356;DHT22;64374;51.482;7.408;2023-03-14T00:20:08;13.60;99.90
4356;DHT22;64374;51.482;7.408;2023-03-14T00:22:41;13.40;99.90
4356;DHT22;64374;51.482;7.408;2023-03-14T00:25:10;13.40;99.90
4356;DHT22;64374;51.482;7.408;2023-03-14T00:27:39;13.40;99.90
4356;DHT22;64374;51.482;7.408;2023-03-14T00:30:08;13.30;99.90
4356;DHT22;64374;51.482;7.408;2023-03-14T00:32:37;13.50;99.90
4356;DHT22;64374;51.482;7.408;2023-03-14T00:35:06;13.40;99.90
4356;DHT22;64374;51.482;7.408;2023-03-14T00:37:35;13.70;99.90
4356;DHT22;64374;51.482;7.408;2023-03-14T00:40:10;13.60;99.90
4356;DHT22;64374;51.482;7.408;2023-03-14T00:42:39;13.60;99.90
4356;DHT22;64374;51.482;7.408;2023-03-14T00:45:08;13.50;99.90
4356;DHT22;64374;51.482;7.408;2023-03-14T00:47:37;13.50;99.90
4356;DHT22;64374;51.482;7.408;2023-03-14T00:50:08;13.50;99.90
4356;DHT22;64374;51.482;7.408;2023-03-14T00:52:38;13.10;99.90
4356;DHT22;64374;51.482;7.408;2023-03-14T00:55:08;13.20;99.90
4356;DHT22;64374;51.482;7.408;2023-03-14T00:57:37;13.10;99.90
4356;DHT22;64374;51.482;7.408;2023-03-14T01:00:07;13.30;99.90
4356;DHT22;64374;51.482;7.408;2023-03-14T01:02:39;13.20;99.90
4356;DHT22;64374;51.482;7.408;2023-03-14T01:05:08;13.10;99.90
4356;DHT22;64374;51.482;7.408;2023-03-14T01:07:37;13.10;99.90
4356;DHT22;64374;51.482;7.408;2023-03-14T01:10:10;13.40;99.90
4356;DHT22;64374;51.482;7.408;2023-03-14T01:12:40;13.10;99.90
4356;DHT22;64374;51.482;7.408;2023-03-14T01:15:09;13.00;99.90
4356;DHT22;64374;51.482;7.408;2023-03-14T01:17:38;12.90;99.90
4356;DHT22;64374;51.482;7.408;2023-03-14T01:20:09;12.90;99.90
4356;DHT22;64374;51.482;7.408;2023-03-14T01:22:39;12.60;99.90
4356;DHT22;64374;51.482;7.408;2023-03-14T01:25:13;12.10;99.90
4356;DHT22;64374;51.482;7.408;2023-03-14T01:27:45;12.30;99.90
4356;DHT22;64374;51.482;7.408;2023-03-14T01:30:14;11.90;99.90
4356;DHT22;64374;51.482;7.408;2023-03-14T01:32:43;11.60;99.90
4356;DHT22;64374;51.482;7.408;2023-03-14T01:35:12;11.40;99.90
4356;DHT22;64374;51.482;7.408;2023-03-14T01:37:42;11.50;99.90
4356;DHT22;64374;51.482;7.408;2023-03-14T01:40:17;11.70;99.90
4356;DHT22;64374;51.482;7.408;2023-03-14T01:42:53;11.50;99.90
4356;DHT22;64374;51.482;7.408;2023-03-14T01:48:34;11.60;99.90
4356;DHT22;64374;51.482;7.408;2023-03-14T01:51:04;11.70;99.90
4356;DHT22;64374;51.482;7.408;2023-03-14T01:53:35;11.90;99.90
4356;DHT22;64374;51.482;7.408;2023-03-14T01:56:07;12.00;99.90
4356;DHT22;64374;51.482;7.408;2023-03-14T01:58:38;11.90;99.90
4356;DHT22;64374;51.482;7.408;2023-03-14T02:01:09;12.00;99.90
4356;DHT22;64374;51.482;7.408;2023-03-14T02:03:45;12.10;99.90
4356;DHT22;64374;51.482;7.408;2023-03-14T02:06:17;12.10;99.90
4356;DHT22;64374;51.482;7.408;2023-03-14T02:08:50;12.10;99.90
4356;DHT22;64374;51.482;7.408;2023-03-14T02:11:28;11.80;99.90
4356;DHT22;64374;51.482;7.408;2023-03-14T02:14:03;11.90;99.90
4356;DHT22;64374;51.482;7.408;2023-03-14T02:16:56;11.70;99.90
4356;DHT22;64374;51.482;7.408;2023-03-14T02:20:11;11.70;99.90
4356;DHT22;64374;51.482;7.408;2023-03-14T02:22:45;11.80;99.90
4356;DHT22;64374;51.482;7.408;2023-03-14T02:25:17;11.60;99.90
4356;DHT22;64374;51.482;7.408;2023-03-14T02:27:49;11.30;99.90
4356;DHT22;64374;51.482;7.408;2023-03-14T02:30:21;11.30;99.90
4356;DHT22;64374;51.482;7.408;2023-03-14T02:32:53;11.50;99.90
4356;DHT22;64374;51.482;7.408;2023-03-14T02:35:26;11.30;99.90
4356;DHT22;64374;51.482;7.408;2023-03-14T02:38:00;11.40;99.90
4356;DHT22;64374;51.482;7.408;2023-03-14T02:40:36;11.20;99.90
4356;DHT22;64374;51.482;7.408;2023-03-14T02:43:06;11.20;99.90
4356;DHT22;64374;51.482;7.408;2023-03-14T02:45:48;11.10;99.90
4356;DHT22;64374;51.482;7.408;2023-03-14T02:48:24;11.10;99.90
4356;DHT22;64374;51.482;7.408;2023-03-14T02:50:56;11.20;99.90
4356;DHT22;64374;51.482;7.408;2023-03-14T02:53:28;11.40;99.90
4356;DHT22;64374;51.482;7.408;2023-03-14T02:56:00;11.50;99.90
4356;DHT22;64374;51.482;7.408;2023-03-14T02:58:33;11.70;99.90
4356;DHT22;64374;51.482;7.408;2023-03-14T03:01:17;11.80;99.90
4356;DHT22;64374;51.482;7.408;2023-03-14T03:03:46;11.90;99.90
4356;DHT22;64374;51.482;7.408;2023-03-14T03:06:15;11.90;99.90
4356;DHT22;64374;51.482;7.408;2023-03-14T03:08:44;11.90;99.90
4356;DHT22;64374;51.482;7.408;2023-03-14T03:11:12;12.00;99.90
4356;DHT22;64374;51.482;7.408;2023-03-14T03:13:42;12.20;99.90
4356;DHT22;64374;51.482;7.408;2023-03-14T03:16:11;12.10;99.90
4356;DHT22;64374;51.482;7.408;2023-03-14T03:18:41;12.00;99.90
4356;DHT22;64374;51.482;7.408;2023-03-14T03:21:09;12.10;99.90
4356;DHT22;64374;51.482;7.408;2023-03-14T03:23:37;12.40;99.90
4356;DHT22;64374;51.482;7.408;2023-03-14T03:26:09;12.50;99.90
4356;DHT22;64374;51.482;7.408;2023-03-14T03:28:41;12.40;99.90
4356;DHT22;64374;51.482;7.408;2023-03-14T03:31:12;12.10;99.90
4356;DHT22;64374;51.482;7.408;2023-03-14T03:33:40;11.90;99.90
4356;DHT22;64374;51.482;7.408;2023-03-14T03:36:10;12.00;99.90
4356;DHT22;64374;51.482;7.408;2023-03-14T03:38:40;12.00;99.90
4356;DHT22;64374;51.482;7.408;2023-03-14T03:41:09;11.90;99.90
4356;DHT22;64374;51.482;7.408;2023-03-14T03:43:38;12.00;99.90
4356;DHT22;64374;51.482;7.408;2023-03-14T03:46:10;11.70;99.90
4356;DHT22;64374;51.482;7.408;2023-03-14T03:48:41;11.80;99.90
4356;DHT22;64374;51.482;7.408;2023-03-14T03:51:13;11.70;99.90
4356;DHT22;64374;51.482;7.408;2023-03-14T03:53:43;12.00;99.90
4356;DHT22;64374;51.482;7.408;2023-03-14T03:56:14;11.80;99.90
4356;DHT22;64374;51.482;7.408;2023-03-14T03:58:44;11.80;99.90
4356;DHT22;64374;51.482;7.408;2023-03-14T04:01:14;11.80;99.90
4356;DHT22;64374;51.482;7.408;2023-03-14T04:03:46;12.00;99.90
4356;DHT22;64374;51.482;7.408;2023-03-14T04:06:15;11.80;99.90
4356;DHT22;64374;51.482;7.408;2023-03-14T04:08:46;11.90;99.90
4356;DHT22;64374;51.482;7.408;2023-03-14T04:11:32;12.00;99.90
4356;DHT22;64374;51.482;7.408;2023-03-14T04:14:11;12.20;99.90
4356;DHT22;64374;51.482;7.408;2023-03-14T04:16:41;12.00;99.90
4356;DHT22;64374;51.482;7.408;2023-03-14T04:19:30;11.80;99.90
4356;DHT22;64374;51.482;7.408;2023-03-14T04:21:59;11.40;99.90
4356;DHT22;64374;51.482;7.408;2023-03-14T04:24:47;11.30;99.90
4356;DHT22;64374;51.482;7.408;2023-03-14T04:27:18;11.30;99.90
4356;DHT22;64374;51.482;7.408;2023-03-14T04:29:47;11.00;99.90
4356;DHT22;64374;51.482;7.408;2023-03-14T04:32:23;11.00;99.90
4356;DHT22;64374;51.482;7.408;2023-03-14T04:34:52;11.00;99.90
4356;DHT22;64374;51.482;7.408;2023-03-14T04:37:21;10.90;99.90
4356;DHT22;64374;51.482;7.408;2023-03-14T04:39:50;10.90;99.90
4356;DHT22;64374;51.482;7.408;2023-03-14T04:42:27;10.80;99.90
4356;DHT22;64374;51.482;7.408;2023-03-14T04:44:56;10.90;99.90
4356;DHT22;64374;51.482;7.408;2023-03-14T04:47:28;10.70;99.90
4356;DHT22;64374;51.482;7.408;2023-03-14T04:49:58;10.40;99.90
4356;DHT22;64374;51.482;7.408;2023-03-14T04:52:27;10.50;99.90
4356;DHT22;64374;51.482;7.408;2023-03-14T04:54:56;10.60;99.90
4356;DHT22;64374;51.482;7.408;2023-03-14T04:57:26;10.80;99.90
4356;DHT22;64374;51.482;7.408;2023-03-14T04:59:58;10.90;99.90
4356;DHT22;64374;51.482;7.408;2023-03-14T05:02:49;11.00;99.90
4356;DHT22;64374;51.482;7.408;2023-03-14T05:05:21;11.20;99.90
4356;DHT22;64374;51.482;7.408;2023-03-14T05:08:04;11.10;99.90
4356;DHT22;64374;51.482;7.408;2023-03-14T05:10:56;11.40;99.90
4356;DHT22;64374;51.482;7.408;2023-03-14T05:13:35;11.60;99.90
4356;DHT22;64374;51.482;7.408;2023-03-14T05:16:21;11.70;99.90
4356;DHT22;64374;51.482;7.408;2023-03-14T05:19:29;11.40;99.90
4356;DHT22;64374;51.482;7.408;2023-03-14T05:22:10;11.00;99.90
4356;DHT22;64374;51.482;7.408;2023-03-14T05:24:58;10.80;99.90
4356;DHT22;64374;51.482;7.408;2023-03-14T05:27:48;10.50;99.90
4356;DHT22;64374;51.482;7.408;2023-03-14T05:30:39;10.30;99.90
4356;DHT22;64374;51.482;7.408;2023-03-14T05:33:33;10.30;99.90
4356;DHT22;64374;51.482;7.408;2023-03-14T05:36:18;10.40;99.90
4356;DHT22;64374;51.482;7.408;2023-03-14T05:39:07;10.60;99.90
4356;DHT22;64374;51.482;7.408;2023-03-14T05:41:39;10.40;99.90
4356;DHT22;64374;51.482;7.408;2023-03-14T05:44:46;10.60;99.90
4356;DHT22;64374;51.482;7.408;2023-03-14T05:47:29;10.70;99.90
4356;DHT22;64374;51.482;7.408;2023-03-14T05:50:17;11.10;99.90
4356;DHT22;64374;51.482;7.408;2023-03-14T05:53:10;11.30;99.90
4356;DHT22;64374;51.482;7.408;2023-03-14T05:55:53;11.20;99.90
4356;DHT22;64374;51.482;7.408;2023-03-14T05:58:47;10.90;99.90
4356;DHT22;64374;51.482;7.408;2023-03-14T06:01:31;11.30;99.90
4356;DHT22;64374;51.482;7.408;2023-03-14T06:04:23;11.10;99.90
4356;DHT22;64374;51.482;7.408;2023-03-14T06:06:55;11.30;99.90
4356;DHT22;64374;51.482;7.408;2023-03-14T06:09:46;11.60;99.90
4356;DHT22;64374;51.482;7.408;2023-03-14T06:12:17;11.00;99.90
4356;DHT22;64374;51.482;7.408;2023-03-14T06:14:46;11.00;99.90
4356;DHT22;64374;51.482;7.408;2023-03-14T06:17:15;11.50;99.90
4356;DHT22;64374;51.482;7.408;2023-03-14T06:19:52;11.10;99.90
4356;DHT22;64374;51.482;7.408;2023-03-14T06:22:20;11.10;99.90
4356;DHT22;64374;51.482;7.408;2023-03-14T06:24:50;11.10;99.90
4356;DHT22;64374;51.482;7.408;2023-03-14T06:27:20;11.10;99.90
4356;DHT22;64374;51.482;7.408;2023-03-14T06:29:53;11.30;99.90
4356;DHT22;64374;51.482;7.408;2023-03-14T06:32:23;11.40;99.90
4356;DHT22;64374;51.482;7.408;2023-03-14T06:34:56;11.20;99.90
4356;DHT22;64374;51.482;7.408;2023-03-14T06:37:33;11.40;99.90
4356;DHT22;64374;51.482;7.408;2023-03-14T06:40:05;11.20;99.90
4356;DHT22;64374;51.482;7.408;2023-03-14T06:43:10;11.10;99.90
4356;DHT22;64374;51.482;7.408;2023-03-14T06:45:41;11.00;99.90
4356;DHT22;64374;51.482;7.408;2023-03-14T06:48:10;11.20;99.90
4356;DHT22;64374;51.482;7.408;2023-03-14T06:50:48;11.30;99.90
4356;DHT22;64374;51.482;7.408;2023-03-14T06:53:20;11.50;99.90
4356;DHT22;64374;51.482;7.408;2023-03-14T06:55:52;11.40;99.90
4356;DHT22;64374;51.482;7.408;2023-03-14T06:58:21;11.40;99.90
4356;DHT22;64374;51.482;7.408;2023-03-14T07:00:49;11.20;99.90
4356;DHT22;64374;51.482;7.408;2023-03-14T07:03:23;11.10;99.90
4356;DHT22;64374;51.482;7.408;2023-03-14T07:05:55;10.70;99.90
4356;DHT22;64374;51.482;7.408;2023-03-14T07:08:23;11.00;99.90
4356;DHT22;64374;51.482;7.408;2023-03-14T07:10:52;11.20;99.90
4356;DHT22;64374;51.482;7.408;2023-03-14T07:13:24;11.10;99.90
4356;DHT22;64374;51.482;7.408;2023-03-14T07:16:02;11.20;99.90
4356;DHT22;64374;51.482;7.408;2023-03-14T07:18:31;11.00;99.90
4356;DHT22;64374;51.482;7.408;2023-03-14T07:21:04;11.00;99.90
4356;DHT22;64374;51.482;7.408;2023-03-14T07:23:32;11.00;99.90
4356;DHT22;64374;51.482;7.408;2023-03-14T07:26:04;11.10;99.90
4356;DHT22;64374;51.482;7.408;2023-03-14T07:28:37;11.10;99.90
4356;DHT22;64374;51.482;7.408;2023-03-14T07:31:12;11.00;99.90
4356;DHT22;64374;51.482;7.408;2023-03-14T07:33:41;11.10;99.90
4356;DHT22;64374;51.482;7.408;2023-03-14T07:36:10;11.10;99.90
4356;DHT22;64374;51.482;7.408;2023-03-14T07:38:43;11.30;99.90
4356;DHT22;64374;51.482;7.408;2023-03-14T07:41:22;11.60;99.90
4356;DHT22;64374;51.482;7.408;2023-03-14T07:44:10;11.50;99.90
4356;DHT22;64374;51.482;7.408;2023-03-14T07:46:40;11.10;99.90
4356;DHT22;64374;51.482;7.408;2023-03-14T07:49:08;11.10;99.90
4356;DHT22;64374;51.482;7.408;2023-03-14T07:51:37;11.10;99.90
4356;DHT22;64374;51.482;7.408;2023-03-14T07:54:05;11.00;99.90
4356;DHT22;64374;51.482;7.408;2023-03-14T07:56:35;11.00;99.90
4356;DHT22;64374;51.482;7.408;2023-03-14T07:59:03;11.10;99.90
4356;DHT22;64374;51.482;7.408;2023-03-14T08:01:31;10.90;99.90
4356;DHT22;64374;51.482;7.408;2023-03-14T08:04:00;11.00;99.90
4356;DHT22;64374;51.482;7.408;2023-03-14T08:06:32;10.90;99.90
4356;DHT22;64374;51.482;7.408;2023-03-14T08:09:00;11.20;99.90
4356;DHT22;64374;51.482;7.408;2023-03-14T08:11:28;11.30;99.90
4356;DHT22;64374;51.482;7.408;2023-03-14T08:13:58;11.20;99.90
4356;DHT22;64374;51.482;7.408;2023-03-14T08:16:27;11.20;99.90
4356;DHT22;64374;51.482;7.408;2023-03-14T08:18:57;11.20;99.90
4356;DHT22;64374;51.482;7.408;2023-03-14T08:21:28;11.20;99.90
4356;DHT22;64374;51.482;7.408;2023-03-14T08:23:57;11.30;99.90
4356;DHT22;64374;51.482;7.408;2023-03-14T08:26:25;11.40;99.90
4356;DHT22;64374;51.482;7.408;2023-03-14T08:28:54;11.50;99.90
4356;DHT22;64374;51.482;7.408;2023-03-14T08:31:23;11.40;99.90
4356;DHT22;64374;51.482;7.408;2023-03-14T08:33:53;11.40;99.90
4356;DHT22;64374;51.482;7.408;2023-03-14T08:36:21;11.50;99.90
4356;DHT22;64374;51.482;7.408;2023-03-14T08:38:50;11.50;99.90
4356;DHT22;64374;51.482;7.408;2023-03-14T08:41:21;11.60;99.90
4356;DHT22;64374;51.482;7.408;2023-03-14T08:43:50;11.80;99.90
4356;DHT22;64374;51.482;7.408;2023-03-14T08:46:18;11.60;99.90
4356;DHT22;64374;51.482;7.408;2023-03-14T08:48:48;11.80;99.90
4356;DHT22;64374;51.482;7.408;2023-03-14T08:51:16;11.70;99.90
4356;DHT22;64374;51.482;7.408;2023-03-14T08:53:49;11.60;99.90
4356;DHT22;64374;51.482;7.408;2023-03-14T08:56:17;11.50;99.90
4356;DHT22;64374;51.482;7.408;2023-03-14T08:58:46;11.40;99.90
4356;DHT22;64374;51.482;7.408;2023-03-14T09:01:14;11.60;99.90
4356;DHT22;64374;51.482;7.408;2023-03-14T09:03:43;11.50;99.90
4356;DHT22;64374;51.482;7.408;2023-03-14T09:06:14;11.70;99.90
4356;DHT22;64374;51.482;7.408;2023-03-14T09:08:45;11.70;99.90
4356;DHT22;64374;51.482;7.408;2023-03-14T09:11:15;11.40;99.90
4356;DHT22;64374;51.482;7.408;2023-03-14T09:13:45;11.50;99.90
4356;DHT22;64374;51.482;7.408;2023-03-14T09:16:15;11.40;99.90
4356;DHT22;64374;51.482;7.408;2023-03-14T09:18:44;11.40;99.90
4356;DHT22;64374;51.482;7.408;2023-03-14T09:21:13;11.40;99.90
4356;DHT22;64374;51.482;7.408;2023-03-14T09:23:43;11.40;99.90
4356;DHT22;64374;51.482;7.408;2023-03-14T09:26:13;11.50;99.90
4356;DHT22;64374;51.482;7.408;2023-03-14T09:28:41;11.60;99.90
4356;DHT22;64374;51.482;7.408;2023-03-14T09:31:10;11.80;99.90
4356;DHT22;64374;51.482;7.408;2023-03-14T09:33:39;12.00;99.90
4356;DHT22;64374;51.482;7.408;2023-03-14T09:36:09;12.00;99.90
4356;DHT22;64374;51.482;7.408;2023-03-14T09:38:38;11.40;99.90
4356;DHT22;64374;51.482;7.408;2023-03-14T09:41:15;11.30;99.90
4356;DHT22;64374;51.482;7.408;2023-03-14T09:43:45;11.10;99.90
4356;DHT22;64374;51.482;7.408;2023-03-14T09:46:15;11.00;99.90
4356;DHT22;64374;51.482;7.408;2023-03-14T09:48:44;10.90;99.90
4356;DHT22;64374;51.482;7.408;2023-03-14T09:51:16;11.10;99.90
4356;DHT22;64374;51.482;7.408;2023-03-14T09:53:49;11.00;99.90
4356;DHT22;64374;51.482;7.408;2023-03-14T09:56:20;10.40;99.90
4356;DHT22;64374;51.482;7.408;2023-03-14T09:58:52;10.30;99.90
4356;DHT22;64374;51.482;7.408;2023-03-14T10:01:26;10.20;99.90
4356;DHT22;64374;51.482;7.408;2023-03-14T10:04:01;10.10;99.90
4356;DHT22;64374;51.482;7.408;2023-03-14T10:06:31;10.10;99.90
4356;DHT22;64374;51.482;7.408;2023-03-14T10:09:04;10.10;99.90
4356;DHT22;64374;51.482;7.408;2023-03-14T10:11:32;10.10;99.90
4356;DHT22;64374;51.482;7.408;2023-03-14T10:14:05;10.00;99.90
4356;DHT22;64374;51.482;7.408;2023-03-14T10:16:35;10.00;99.90
4356;DHT22;64374;51.482;7.408;2023-03-14T10:19:06;10.00;99.90
4356;DHT22;64374;51.482;7.408;2023-03-14T10:21:39;10.00;99.90
4356;DHT22;64374;51.482;7.408;2023-03-14T10:24:17;9.70;99.90
4356;DHT22;64374;51.482;7.408;2023-03-14T10:26:49;9.80;99.90
4356;DHT22;64374;51.482;7.408;2023-03-14T10:29:18;9.60;99.90
4356;DHT22;64374;51.482;7.408;2023-03-14T10:31:52;9.50;99.90
4356;DHT22;64374;51.482;7.408;2023-03-14T10:34:24;9.50;99.90
4356;DHT22;64374;51.482;7.408;2023-03-14T10:36:54;9.50;99.90
4356;DHT22;64374;51.482;7.408;2023-03-14T10:39:33;9.50;99.90
4356;DHT22;64374;51.482;7.408;2023-03-14T10:42:14;9.30;99.90
4356;DHT22;64374;51.482;7.408;2023-03-14T10:44:45;9.00;99.90
4356;DHT22;64374;51.482;7.408;2023-03-14T10:47:18;8.80;99.90
4356;DHT22;64374;51.482;7.408;2023-03-14T10:49:47;8.70;99.90
4356;DHT22;64374;51.482;7.408;2023-03-14T10:52:22;8.70;99.90
4356;DHT22;64374;51.482;7.408;2023-03-14T10:55:10;8.70;99.90
4356;DHT22;64374;51.482;7.408;2023-03-14T10:57:39;8.80;99.90
4356;DHT22;64374;51.482;7.408;2023-03-14T11:00:14;8.70;99.90
4356;DHT22;64374;51.482;7.408;2023-03-14T11:02:53;8.90;99.90
4356;DHT22;64374;51.482;7.408;2023-03-14T11:05:30;8.70;99.90
4356;DHT22;64374;51.482;7.408;2023-03-14T11:08:06;8.60;99.90
4356;DHT22;64374;51.482;7.408;2023-03-14T11:10:39;8.40;99.90
4356;DHT22;64374;51.482;7.408;2023-03-14T11:13:16;8.10;99.90
4356;DHT22;64374;51.482;7.408;2023-03-14T11:15:57;8.10;99.90
4356;DHT22;64374;51.482;7.408;2023-03-14T11:21:38;8.10;99.90
4356;DHT22;64374;51.482;7.408;2023-03-14T11:24:23;8.10;99.90
4356;DHT22;64374;51.482;7.408;2023-03-14T11:27:00;8.00;99.90
4356;DHT22;64374;51.482;7.408;2023-03-14T11:29:39;7.90;99.90
4356;DHT22;64374;51.482;7.408;2023-03-14T11:32:13;7.70;99.90
4356;DHT22;64374;51.482;7.408;2023-03-14T11:34:47;7.80;99.90
4356;DHT22;64374;51.482;7.408;2023-03-14T11:37:23;7.80;99.90
4356;DHT22;64374;51.482;7.408;2023-03-14T11:39:59;7.50;99.90
4356;DHT22;64374;51.482;7.408;2023-03-14T11:42:33;7.60;99.90
4356;DHT22;64374;51.482;7.408;2023-03-14T11:45:02;7.70;99.90
4356;DHT22;64374;51.482;7.408;2023-03-14T11:47:37;7.70;99.90
4356;DHT22;64374;51.482;7.408;2023-03-14T11:50:14;7.70;99.90
4356;DHT22;64374;51.482;7.408;2023-03-14T11:52:47;7.90;99.90
4356;DHT22;64374;51.482;7.408;2023-03-14T11:55:20;7.80;99.90
4356;DHT22;64374;51.482;7.408;2023-03-14T11:57:52;8.00;99.90
4356;DHT22;64374;51.482;7.408;2023-03-14T12:00:22;8.20;99.90
4356;DHT22;64374;51.482;7.408;2023-03-14T12:02:57;7.90;99.90
4356;DHT22;64374;51.482;7.408;2023-03-14T12:05:38;7.60;99.90
4356;DHT22;64374;51.482;7.408;2023-03-14T12:11:19;7.60;99.90
4356;DHT22;64374;51.482;7.408;2023-03-14T12:13:52;7.50;99.90
4356;DHT22;64374;51.482;7.408;2023-03-14T12:16:33;7.60;99.90
4356;DHT22;64374;51.482;7.408;2023-03-14T12:19:37;7.70;99.90
4356;DHT22;64374;51.482;7.408;2023-03-14T12:22:24;7.60;99.90
4356;DHT22;64374;51.482;7.408;2023-03-14T12:24:59;7.60;99.90
4356;DHT22;64374;51.482;7.408;2023-03-14T12:30:41;7.80;99.90
4356;DHT22;64374;51.482;7.408;2023-03-14T12:33:28;7.70;99.90
4356;DHT22;64374;51.482;7.408;2023-03-14T12:35:59;7.80;99.90
4356;DHT22;64374;51.482;7.408;2023-03-14T12:38:43;7.90;99.90
4356;DHT22;64374;51.482;7.408;2023-03-14T12:41:37;8.30;99.90
4356;DHT22;64374;51.482;7.408;2023-03-14T12:44:38;8.80;99.90
4356;DHT22;64374;51.482;7.408;2023-03-14T12:50:18;9.10;99.90
4356;DHT22;64374;51.482;7.408;2023-03-14T12:53:09;9.00;99.90
4356;DHT22;64374;51.482;7.408;2023-03-14T12:55:46;9.00;99.90
4356;DHT22;64374;51.482;7.408;2023-03-14T12:58:27;8.80;99.90
4356;DHT22;64374;51.482;7.408;2023-03-14T13:01:00;8.50;99.90
4356;DHT22;64374;51.482;7.408;2023-03-14T13:03:39;8.60;99.90
4356;DHT22;64374;51.482;7.408;2023-03-14T13:06:10;8.40;99.90
4356;DHT22;64374;51.482;7.408;2023-03-14T13:08:41;8.50;99.90
4356;DHT22;64374;51.482;7.408;2023-03-14T13:11:12;8.50;99.90
4356;DHT22;64374;51.482;7.408;2023-03-14T13:13:45;8.30;99.90
4356;DHT22;64374;51.482;7.408;2023-03-14T13:16:18;7.90;99.90
4356;DHT22;64374;51.482;7.408;2023-03-14T13:18:49;7.80;99.90
4356;DHT22;64374;51.482;7.408;2023-03-14T13:21:21;7.40;99.90
4356;DHT22;64374;51.482;7.408;2023-03-14T13:23:56;7.20;99.90
4356;DHT22;64374;51.482;7.408;2023-03-14T13:26:31;7.10;99.90
4356;DHT22;64374;51.482;7.408;2023-03-14T13:29:11;7.20;99.90
4356;DHT22;64374;51.482;7.408;2023-03-14T13:31:44;7.40;99.90
4356;DHT22;64374;51.482;7.408;2023-03-14T13:34:13;7.60;99.90
4356;DHT22;64374;51.482;7.408;2023-03-14T13:36:43;7.70;99.90
4356;DHT22;64374;51.482;7.408;2023-03-14T13:39:13;7.80;99.90
4356;DHT22;64374;51.482;7.408;2023-03-14T13:41:45;7.70;99.90
4356;DHT22;64374;51.482;7.408;2023-03-14T13:44:16;7.50;99.90
4356;DHT22;64374;51.482;7.408;2023-03-14T13:46:46;7.40;99.90
4356;DHT22;64374;51.482;7.408;2023-03-14T13:49:21;7.40;99.90
4356;DHT22;64374;51.482;7.408;2023-03-14T13:51:51;7.10;99.90
4356;DHT22;64374;51.482;7.408;2023-03-14T13:54:21;6.90;99.90
4356;DHT22;64374;51.482;7.408;2023-03-14T13:56:59;6.90;99.90
4356;DHT22;64374;51.482;7.408;2023-03-14T13:59:29;7.00;99.90
4356;DHT22;64374;51.482;7.408;2023-03-14T14:01:59;7.10;99.90
4356;DHT22;64374;51.482;7.408;2023-03-14T14:04:29;7.10;99.90
4356;DHT22;64374;51.482;7.408;2023-03-14T14:07:08;7.30;99.90
4356;DHT22;64374;51.482;7.408;2023-03-14T14:09:39;7.40;99.90
4356;DHT22;64374;51.482;7.408;2023-03-14T14:12:13;8.20;99.90
4356;DHT22;64374;51.482;7.408;2023-03-14T14:14:46;9.00;99.90
4356;DHT22;64374;51.482;7.408;2023-03-14T14:17:20;9.70;99.90
4356;DHT22;64374;51.482;7.408;2023-03-14T14:19:50;10.20;99.90
4356;DHT22;64374;51.482;7.408;2023-03-14T14:22:21;10.20;99.90
4356;DHT22;64374;51.482;7.408;2023-03-14T14:24:50;10.10;99.90
4356;DHT22;64374;51.482;7.408;2023-03-14T14:27:24;9.80;99.90
4356;DHT22;64374;51.482;7.408;2023-03-14T14:29:58;9.60;99.90
4356;DHT22;64374;51.482;7.408;2023-03-14T14:32:36;9.50;99.90
4356;DHT22;64374;51.482;7.408;2023-03-14T14:35:08;9.30;99.90
4356;DHT22;64374;51.482;7.408;2023-03-14T14:37:43;9.30;99.90
4356;DHT22;64374;51.482;7.408;2023-03-14T14:40:18;9.70;99.90
4356;DHT22;64374;51.482;7.408;2023-03-14T14:42:47;10.00;99.90
4356;DHT22;64374;51.482;7.408;2023-03-14T14:45:19;10.20;99.90
4356;DHT22;64374;51.482;7.408;2023-03-14T14:47:50;10.30;99.90
4356;DHT22;64374;51.482;7.408;2023-03-14T14:50:29;10.20;99.90
4356;DHT22;64374;51.482;7.408;2023-03-14T14:53:02;10.20;99.90
4356;DHT22;64374;51.482;7.408;2023-03-14T14:55:33;10.40;99.90
4356;DHT22;64374;51.482;7.408;2023-03-14T14:58:14;10.40;99.90
4356;DHT22;64374;51.482;7.408;2023-03-14T15:00:54;10.40;99.90
4356;DHT22;64374;51.482;7.408;2023-03-14T15:03:27;10.20;99.90
4356;DHT22;64374;51.482;7.408;2023-03-14T15:05:57;10.30;99.90
4356;DHT22;64374;51.482;7.408;2023-03-14T15:08:27;10.50;99.90
4356;DHT22;64374;51.482;7.408;2023-03-14T15:10:57;10.70;99.90
4356;DHT22;64374;51.482;7.408;2023-03-14T15:13:25;10.80;99.90
4356;DHT22;64374;51.482;7.408;2023-03-14T15:15:55;10.60;99.90
4356;DHT22;64374;51.482;7.408;2023-03-14T15:18:25;10.20;99.90
4356;DHT22;64374;51.482;7.408;2023-03-14T15:20:57;10.20;99.90
4356;DHT22;64374;51.482;7.408;2023-03-14T15:23:28;9.80;99.90
4356;DHT22;64374;51.482;7.408;2023-03-14T15:25:56;9.80;99.90
4356;DHT22;64374;51.482;7.408;2023-03-14T15:28:28;9.60;99.90
4356;DHT22;64374;51.482;7.408;2023-03-14T15:30:58;9.20;99.90
4356;DHT22;64374;51.482;7.408;2023-03-14T15:33:26;9.10;99.90
4356;DHT22;64374;51.482;7.408;2023-03-14T15:35:57;9.10;99.90
4356;DHT22;64374;51.482;7.408;2023-03-14T15:38:31;9.00;99.90
4356;DHT22;64374;51.482;7.408;2023-03-14T15:40:59;8.80;99.90
4356;DHT22;64374;51.482;7.408;2023-03-14T15:43:27;8.70;99.90
4356;DHT22;64374;51.482;7.408;2023-03-14T15:45:56;8.60;99.90
4356;DHT22;64374;51.482;7.408;2023-03-14T15:48:25;8.50;99.90
4356;DHT22;64374;51.482;7.408;2023-03-14T15:50:53;8.40;99.90
4356;DHT22;64374;51.482;7.408;2023-03-14T15:53:22;8.40;99.90
4356;DHT22;64374;51.482;7.408;2023-03-14T15:55:52;8.30;99.90
4356;DHT22;64374;51.482;7.408;2023-03-14T15:58:21;8.20;99.90
4356;DHT22;64374;51.482;7.408;2023-03-14T16:00:50;8.20;99.90
4356;DHT22;64374;51.482;7.408;2023-03-14T16:03:18;8.20;99.90
4356;DHT22;64374;51.482;7.408;2023-03-14T16:05:48;8.10;99.90
4356;DHT22;64374;51.482;7.408;2023-03-14T16:08:16;8.10;99.90
4356;DHT22;64374;51.482;7.408;2023-03-14T16:10:45;8.20;99.90
4356;DHT22;64374;51.482;7.408;2023-03-14T16:13:16;8.10;99.90
4356;DHT22;64374;51.482;7.408;2023-03-14T16:15:55;8.20;99.90
4356;DHT22;64374;51.482;7.408;2023-03-14T16:18:24;8.30;99.90
4356;DHT22;64374;51.482;7.408;2023-03-14T16:20:55;8.60;99.90
4356;DHT22;64374;51.482;7.408;2023-03-14T16:23:26;8.60;99.90
4356;DHT22;64374;51.482;7.408;2023-03-14T16:25:55;8.50;99.90
4356;DHT22;64374;51.482;7.408;2023-03-14T16:28:27;8.10;99.90
4356;DHT22;64374;51.482;7.408;2023-03-14T16:31:00;8.00;99.90
4356;DHT22;64374;51.482;7.408;2023-03-14T16:33:29;7.90;99.90
4356;DHT22;64374;51.482;7.408;2023-03-14T16:35:58;7.80;99.90
4356;DHT22;64374;51.482;7.408;2023-03-14T16:38:27;7.80;99.90
4356;DHT22;64374;51.482;7.408;2023-03-14T16:41:17;7.80;99.90
4356;DHT22;64374;51.482;7.408;2023-03-14T16:43:48;7.80;99.90
4356;DHT22;64374;51.482;7.408;2023-03-14T16:46:19;7.80;99.90